createdAt,value
2022-08-24T00:00:01.550Z,38.65
2022-08-24T00:02:31.560Z,40.80
2022-08-24T00:05:01.978Z,40.30
2022-08-24T00:07:32.482Z,39.65
2022-08-24T00:10:02.753Z,39.15
2022-08-24T00:12:33.833Z,38.00
2022-08-24T00:15:06.666Z,37.05
2022-08-24T00:17:37.162Z,39.03
2022-08-24T00:20:08.444Z,37.10
2022-08-24T00:22:39.618Z,37.17
2022-08-24T00:25:10.711Z,36.25
2022-08-24T00:27:42.339Z,38.45
2022-08-24T00:30:20.790Z,36.92
2022-08-24T00:32:52.309Z,36.80
2022-08-24T00:35:23.072Z,35.75
2022-08-24T00:37:54.764Z,37.25
2022-08-24T00:40:27.108Z,36.78
2022-08-24T00:42:57.714Z,35.63
2022-08-24T00:45:36.537Z,36.28
2022-08-24T00:48:13.559Z,36.88
2022-08-24T00:50:49.376Z,36.55
2022-08-24T00:53:25.939Z,35.17
2022-08-24T00:56:01.291Z,36.38
2022-08-24T00:58:36.651Z,37.28
2022-08-24T01:01:11.800Z,37.50
2022-08-24T01:03:56.612Z,35.78
2022-08-24T01:06:29.149Z,36.92
2022-08-24T01:08:58.884Z,37.08
2022-08-24T01:11:34.784Z,37.40
2022-08-24T01:14:06.116Z,37.03
2022-08-24T01:16:54.487Z,35.45
2022-08-24T01:19:36.090Z,35.55
2022-08-24T01:22:19.867Z,36.35
2022-08-24T01:24:52.290Z,36.75
2022-08-24T01:27:27.756Z,37.65
2022-08-24T01:30:02.298Z,37.08
2022-08-24T01:32:31.950Z,35.83
2022-08-24T01:35:01.354Z,36.80
2022-08-24T01:37:33.525Z,37.28
2022-08-24T01:40:09.732Z,38.53
2022-08-24T01:42:39.745Z,38.42
2022-08-24T01:45:12.302Z,37.42
2022-08-24T01:47:43.693Z,40.10
2022-08-24T01:50:13.965Z,38.17
2022-08-24T01:53:04.336Z,40.85
2022-08-24T01:55:38.321Z,38.95
2022-08-24T01:58:10.194Z,39.53
2022-08-24T02:00:41.806Z,38.72
2022-08-24T02:03:11.316Z,39.40
2022-08-24T02:05:45.868Z,40.25
2022-08-24T02:08:17.913Z,38.65
2022-08-24T02:10:56.343Z,37.75
2022-08-24T02:13:31.313Z,39.17
2022-08-24T02:16:01.468Z,38.65
2022-08-24T02:18:36.612Z,40.25
2022-08-24T02:21:11.312Z,38.95
2022-08-24T02:23:42.257Z,39.22
2022-08-24T02:26:13.493Z,37.35
2022-08-24T02:28:43.444Z,39.47
2022-08-24T02:31:14.986Z,39.00
2022-08-24T02:33:47.197Z,38.35
2022-08-24T02:36:25.305Z,40.17
2022-08-24T02:39:00.396Z,40.33
2022-08-24T02:41:31.503Z,38.80
2022-08-24T02:44:01.605Z,38.80
2022-08-24T02:46:33.137Z,38.40
2022-08-24T02:49:11.642Z,39.35
2022-08-24T02:51:48.888Z,39.70
2022-08-24T02:54:23.402Z,38.65
2022-08-24T02:56:56.198Z,40.25
2022-08-24T02:59:27.672Z,39.72
2022-08-24T03:01:58.332Z,39.47
2022-08-24T03:04:30.756Z,39.10
2022-08-24T03:07:02.376Z,39.72
2022-08-24T03:09:32.856Z,38.58
2022-08-24T03:12:03.767Z,39.13
2022-08-24T03:14:33.713Z,38.28
2022-08-24T03:17:02.868Z,39.13
2022-08-24T03:19:33.159Z,39.85
2022-08-24T03:22:02.885Z,38.65
2022-08-24T03:24:34.275Z,40.35
2022-08-24T03:27:06.812Z,40.75
2022-08-24T03:29:38.163Z,41.05
2022-08-24T03:32:09.823Z,40.60
2022-08-24T03:34:40.867Z,39.20
2022-08-24T03:37:10.546Z,40.28
2022-08-24T03:39:39.763Z,41.03
2022-08-24T03:42:12.031Z,41.08
2022-08-24T03:44:42.867Z,41.42
2022-08-24T03:47:14.147Z,40.22
2022-08-24T03:49:44.282Z,40.25
2022-08-24T03:52:16.303Z,39.05
2022-08-24T03:54:46.926Z,38.53
2022-08-24T03:57:20.963Z,39.70
2022-08-24T03:59:50.738Z,38.92
2022-08-24T04:02:22.272Z,38.17
2022-08-24T04:04:52.437Z,38.78
2022-08-24T04:07:21.796Z,39.92
2022-08-24T04:09:51.334Z,40.25
2022-08-24T04:12:24.070Z,39.53
2022-08-24T04:14:55.793Z,40.53
2022-08-24T04:17:26.834Z,39.38
2022-08-24T04:20:02.550Z,39.45
2022-08-24T04:22:37.070Z,40.63
2022-08-24T04:25:08.894Z,41.75
2022-08-24T04:27:43.582Z,41.45
2022-08-24T04:30:16.361Z,41.45
2022-08-24T04:33:06.141Z,41.03
2022-08-24T04:35:39.831Z,39.40
2022-08-24T04:38:09.676Z,37.92
2022-08-24T04:40:41.821Z,37.08
2022-08-24T04:43:19.481Z,38.13
2022-08-24T04:45:51.153Z,38.92
2022-08-24T04:48:21.489Z,37.50
2022-08-24T04:50:51.034Z,37.60
2022-08-24T04:53:20.658Z,37.28
2022-08-24T04:55:52.989Z,36.88
2022-08-24T04:58:23.825Z,36.97
2022-08-24T05:00:53.853Z,35.72
2022-08-24T05:03:24.433Z,36.50
2022-08-24T05:05:55.945Z,37.20
2022-08-24T05:08:27.397Z,38.10
2022-08-24T05:10:57.065Z,35.58
2022-08-24T05:13:28.675Z,35.80
2022-08-24T05:15:59.499Z,36.08
2022-08-24T05:18:30.331Z,35.53
2022-08-24T05:21:00.087Z,35.17
2022-08-24T05:23:31.889Z,34.83
2022-08-24T05:26:08.864Z,34.03
2022-08-24T05:28:40.119Z,32.78
2022-08-24T05:31:11.421Z,31.35
2022-08-24T05:33:41.547Z,31.30
2022-08-24T05:36:21.741Z,30.38
2022-08-24T05:38:52.799Z,29.65
2022-08-24T05:41:26.319Z,29.30
2022-08-24T05:44:13.368Z,29.95
2022-08-24T05:46:43.860Z,31.52
2022-08-24T05:49:13.612Z,30.00
2022-08-24T05:51:44.423Z,31.38
2022-08-24T05:54:15.955Z,32.17
2022-08-24T05:56:55.260Z,31.05
2022-08-24T05:59:28.812Z,29.48
2022-08-24T06:02:01.261Z,29.80
2022-08-24T06:04:33.094Z,29.45
2022-08-24T06:07:02.108Z,29.55
2022-08-24T06:09:34.719Z,30.48
2022-08-24T06:12:04.827Z,28.98
2022-08-24T06:14:36.712Z,29.77
2022-08-24T06:17:14.923Z,30.15
2022-08-24T06:19:45.512Z,29.02
2022-08-24T06:22:16.658Z,28.25
2022-08-24T06:25:02.923Z,27.83
2022-08-24T06:27:34.431Z,27.08
2022-08-24T06:30:12.925Z,27.15
2022-08-24T06:32:48.265Z,24.77
2022-08-24T06:35:44.767Z,24.02
2022-08-24T06:38:17.365Z,23.58
2022-08-24T06:40:50.787Z,22.55
2022-08-24T06:43:22.372Z,20.33
2022-08-24T06:46:02.117Z,19.90
2022-08-24T06:48:36.933Z,18.40
2022-08-24T06:51:12.391Z,18.05
2022-08-24T06:53:42.730Z,19.08
2022-08-24T06:56:18.781Z,18.50
2022-08-24T06:58:50.405Z,17.92
2022-08-24T07:01:27.575Z,16.85
2022-08-24T07:03:58.224Z,17.23
2022-08-24T07:06:59.680Z,16.17
2022-08-24T07:09:29.281Z,15.60
2022-08-24T07:11:58.797Z,13.75
2022-08-24T07:14:28.450Z,14.88
2022-08-24T07:17:02.004Z,15.15
2022-08-24T07:19:37.561Z,14.63
2022-08-24T07:22:10.408Z,16.02
2022-08-24T07:24:41.311Z,15.15
2022-08-24T07:27:15.177Z,15.48
2022-08-24T07:29:52.734Z,15.60
2022-08-24T07:32:26.024Z,15.90
2022-08-24T07:34:59.488Z,14.70
2022-08-24T07:37:41.138Z,14.57
2022-08-24T07:40:13.997Z,15.73
2022-08-24T07:42:45.097Z,14.93
2022-08-24T07:45:15.225Z,16.05
2022-08-24T07:47:55.483Z,16.98
2022-08-24T07:50:39.838Z,17.80
2022-08-24T07:53:13.858Z,17.92
2022-08-24T07:55:46.243Z,18.35
2022-08-24T07:58:16.553Z,18.30
2022-08-24T08:00:49.488Z,17.23
2022-08-24T08:03:22.249Z,17.27
2022-08-24T08:05:59.776Z,18.15
2022-08-24T08:08:29.851Z,19.02
2022-08-24T08:11:02.276Z,18.98
2022-08-24T08:13:32.414Z,18.20
2022-08-24T08:16:06.438Z,18.58
2022-08-24T08:18:40.088Z,18.98
2022-08-24T08:21:27.432Z,18.58
2022-08-24T08:24:17.143Z,17.52
2022-08-24T08:26:55.336Z,17.48
2022-08-24T08:29:38.496Z,17.70
2022-08-24T08:32:12.255Z,16.75
2022-08-24T08:34:44.506Z,18.13
2022-08-24T08:37:16.011Z,18.25
2022-08-24T08:39:47.196Z,16.95
2022-08-24T08:42:41.711Z,17.95
2022-08-24T08:45:26.775Z,15.73
2022-08-24T08:49:04.359Z,16.80
2022-08-24T08:52:11.338Z,16.30
2022-08-24T08:55:01.642Z,17.30
2022-08-24T08:57:51.138Z,17.10
2022-08-24T09:00:26.418Z,17.40
2022-08-24T09:03:28.702Z,18.48
2022-08-24T09:06:41.190Z,18.00
2022-08-24T09:09:34.755Z,18.00
2022-08-24T09:12:16.469Z,17.95
2022-08-24T09:15:16.745Z,19.42
2022-08-24T09:18:18.673Z,18.48
2022-08-24T09:21:01.937Z,18.70
2022-08-24T09:23:38.473Z,20.10
2022-08-24T09:26:21.664Z,20.23
2022-08-24T09:29:07.955Z,19.05
2022-08-24T09:31:59.928Z,20.17
2022-08-24T09:34:41.137Z,19.58
2022-08-24T09:37:33.593Z,17.90
2022-08-24T09:40:14.967Z,18.25
2022-08-24T09:43:22.760Z,17.00
2022-08-24T09:46:25.241Z,16.63
2022-08-24T09:49:32.165Z,16.63
2022-08-24T09:52:49.188Z,19.45
2022-08-24T09:55:59.996Z,18.77
2022-08-24T09:58:48.689Z,18.42
2022-08-24T10:01:30.449Z,18.13
2022-08-24T10:04:16.546Z,17.83
2022-08-24T10:06:57.172Z,17.20
2022-08-24T10:09:55.504Z,16.88
2022-08-24T10:12:46.079Z,17.02
2022-08-24T10:15:21.828Z,16.92
2022-08-24T10:18:19.748Z,16.50
2022-08-24T10:21:05.463Z,17.40
2022-08-24T10:23:55.452Z,16.92
2022-08-24T10:26:35.552Z,16.00
2022-08-24T10:29:32.806Z,14.43
2022-08-24T10:32:23.226Z,12.43
2022-08-24T10:35:06.660Z,11.93
2022-08-24T10:38:16.633Z,13.23
2022-08-24T10:40:57.936Z,14.65
2022-08-24T10:43:56.142Z,13.40
2022-08-24T10:46:41.496Z,11.50
2022-08-24T10:49:58.882Z,12.13
2022-08-24T10:52:51.012Z,12.43
2022-08-24T10:55:23.948Z,13.00
2022-08-24T10:58:17.290Z,12.02
2022-08-24T11:00:48.066Z,11.05
2022-08-24T11:03:27.756Z,12.18
2022-08-24T11:06:01.378Z,11.82
2022-08-24T11:08:34.749Z,11.13
2022-08-24T11:11:10.947Z,10.20
2022-08-24T11:13:53.967Z,10.48
2022-08-24T11:16:30.741Z,10.13
2022-08-24T11:19:04.354Z,10.55
2022-08-24T11:21:43.298Z,10.52
2022-08-24T11:24:27.181Z,9.88
2022-08-24T11:27:01.020Z,11.25
2022-08-24T11:29:52.387Z,10.40
2022-08-24T11:32:29.765Z,10.38
2022-08-24T11:35:04.977Z,10.40
2022-08-24T11:37:37.104Z,10.65
2022-08-24T11:40:10.845Z,10.05
2022-08-24T11:43:13.322Z,10.35
2022-08-24T11:45:50.248Z,12.18
2022-08-24T11:48:32.384Z,10.13
2022-08-24T11:51:09.177Z,10.95
2022-08-24T11:53:59.244Z,10.90
2022-08-24T11:56:42.207Z,10.68
2022-08-24T11:59:25.468Z,10.60
2022-08-24T12:02:00.322Z,10.85
2022-08-24T12:04:45.536Z,10.98
2022-08-24T12:07:26.180Z,11.13
2022-08-24T12:10:11.951Z,11.10
2022-08-24T12:12:48.997Z,11.00
2022-08-24T12:15:23.501Z,10.90
2022-08-24T12:18:03.678Z,10.43
2022-08-24T12:20:37.311Z,10.75
2022-08-24T12:23:10.784Z,10.35
2022-08-24T12:25:57.606Z,11.05
2022-08-24T12:28:35.319Z,11.10
2022-08-24T12:31:12.801Z,10.60
2022-08-24T12:33:50.403Z,12.15
2022-08-24T12:36:32.835Z,11.02
2022-08-24T12:39:12.268Z,11.38
2022-08-24T12:41:53.311Z,11.63
2022-08-24T12:44:31.074Z,12.57
2022-08-24T12:47:00.422Z,11.00
2022-08-24T12:49:37.085Z,10.57
2022-08-24T12:52:45.198Z,11.02
2022-08-24T12:55:33.854Z,10.20
2022-08-24T12:58:32.234Z,10.50
2022-08-24T13:01:09.147Z,10.40
2022-08-24T13:03:41.998Z,9.68
2022-08-24T13:06:20.646Z,9.20
2022-08-24T13:08:53.968Z,9.43
2022-08-24T13:11:32.937Z,8.85
2022-08-24T13:14:19.750Z,8.70
2022-08-24T13:17:11.649Z,8.25
2022-08-24T13:19:44.593Z,8.23
2022-08-24T13:22:44.433Z,8.23
2022-08-24T13:25:28.082Z,7.88
2022-08-24T13:28:10.164Z,7.50
2022-08-24T13:31:04.548Z,7.38
2022-08-24T13:33:39.084Z,7.63
2022-08-24T13:36:26.412Z,7.60
2022-08-24T13:39:22.701Z,6.78
2022-08-24T13:42:11.296Z,7.85
2022-08-24T13:45:17.090Z,7.32
2022-08-24T13:48:04.570Z,7.97
2022-08-24T13:50:46.564Z,8.10
2022-08-24T13:53:49.876Z,7.90
2022-08-24T13:56:50.736Z,7.80
2022-08-24T13:59:55.234Z,7.57
2022-08-24T14:02:35.005Z,7.90
2022-08-24T14:05:12.862Z,7.93
2022-08-24T14:07:56.040Z,7.85
2022-08-24T14:10:46.232Z,8.18
2022-08-24T14:13:34.700Z,7.93
2022-08-24T14:16:30.938Z,7.63
2022-08-24T14:19:13.152Z,7.85
2022-08-24T14:21:48.671Z,7.82
2022-08-24T14:24:33.092Z,6.30
2022-08-24T14:27:10.445Z,7.78
2022-08-24T14:29:50.727Z,7.60
2022-08-24T14:32:32.401Z,6.50
2022-08-24T14:35:20.952Z,6.45
2022-08-24T14:38:26.651Z,7.40
2022-08-24T14:41:05.240Z,16.63
2022-08-24T14:43:47.329Z,6.75
2022-08-24T14:46:29.111Z,6.65
2022-08-24T14:49:14.187Z,8.82
2022-08-24T14:52:03.366Z,8.73
2022-08-24T14:54:53.252Z,7.88
2022-08-24T14:57:42.490Z,8.50
2022-08-24T15:00:15.382Z,9.80
2022-08-24T15:03:19.683Z,20.48
2022-08-24T15:06:26.247Z,9.68
2022-08-24T15:09:13.735Z,10.57
2022-08-24T15:11:44.454Z,11.38
2022-08-24T15:14:33.623Z,9.65
2022-08-24T15:17:18.894Z,9.85
2022-08-24T15:20:02.443Z,9.60
2022-08-24T15:22:43.958Z,9.80
2022-08-24T15:25:20.162Z,10.43
2022-08-24T15:27:56.348Z,9.82
2022-08-24T15:30:33.615Z,10.15
2022-08-24T15:33:10.560Z,9.95
2022-08-24T15:35:43.963Z,9.73
2022-08-24T15:38:23.798Z,10.38
2022-08-24T15:41:05.165Z,10.77
2022-08-24T15:43:36.537Z,10.23
2022-08-24T15:46:08.102Z,9.95
2022-08-24T15:48:40.793Z,10.30
2022-08-24T15:51:11.365Z,9.95
2022-08-24T15:53:43.525Z,11.00
2022-08-24T15:56:36.301Z,10.40
2022-08-24T15:59:12.747Z,11.05
2022-08-24T16:02:02.623Z,10.57
2022-08-24T16:04:53.233Z,11.65
2022-08-24T16:07:26.424Z,12.38
2022-08-24T16:10:07.869Z,9.45
2022-08-24T16:12:38.872Z,9.32
2022-08-24T16:15:17.720Z,10.10
2022-08-24T16:17:56.760Z,10.10
2022-08-24T16:20:36.217Z,9.50
2022-08-24T16:23:08.540Z,9.73
2022-08-24T16:25:43.245Z,9.77
2022-08-24T16:28:34.071Z,10.40
2022-08-24T16:31:07.630Z,10.23
2022-08-24T16:33:44.435Z,11.02
2022-08-24T16:36:16.926Z,10.45
2022-08-24T16:38:49.847Z,10.07
2022-08-24T16:41:21.972Z,10.48
2022-08-24T16:43:52.062Z,10.93
2022-08-24T16:46:26.657Z,10.35
2022-08-24T16:48:59.480Z,10.32
2022-08-24T16:51:29.497Z,10.45
2022-08-24T16:53:58.936Z,12.70
2022-08-24T16:56:30.435Z,11.07
2022-08-24T16:59:00.776Z,11.00
2022-08-24T17:01:30.469Z,10.65
2022-08-24T17:04:04.555Z,10.57
2022-08-24T17:06:35.690Z,12.40
2022-08-24T17:09:06.471Z,11.80
2022-08-24T17:11:40.141Z,11.52
2022-08-24T17:14:09.991Z,11.50
2022-08-24T17:16:40.355Z,11.20
2022-08-24T17:19:15.459Z,11.98
2022-08-24T17:21:48.140Z,12.35
2022-08-24T17:24:21.688Z,12.60
2022-08-24T17:26:52.605Z,13.13
2022-08-24T17:29:23.794Z,12.93
2022-08-24T17:31:54.433Z,12.85
2022-08-24T17:34:27.899Z,13.57
2022-08-24T17:36:59.066Z,13.15
2022-08-24T17:39:29.014Z,12.70
2022-08-24T17:42:00.907Z,13.50
2022-08-24T17:44:34.386Z,15.88
2022-08-24T17:47:06.206Z,16.08
2022-08-24T17:49:40.326Z,15.13
2022-08-24T17:52:10.014Z,17.83
2022-08-24T17:54:39.410Z,19.55
2022-08-24T17:57:09.458Z,17.55
2022-08-24T17:59:39.467Z,16.67
2022-08-24T18:02:12.666Z,17.85
2022-08-24T18:04:44.873Z,16.85
2022-08-24T18:07:42.325Z,17.15
2022-08-24T18:10:15.739Z,20.98
2022-08-24T18:12:56.386Z,16.42
2022-08-24T18:15:34.518Z,19.13
2022-08-24T18:18:08.871Z,48.20
2022-08-24T18:20:45.458Z,26.55
2022-08-24T18:23:21.148Z,17.65
2022-08-24T18:25:53.376Z,22.60
2022-08-24T18:28:25.165Z,22.25
2022-08-24T18:30:58.826Z,26.10
2022-08-24T18:33:28.802Z,25.10
2022-08-24T18:36:00.945Z,39.25
2022-08-24T18:38:30.535Z,35.50
2022-08-24T18:41:01.878Z,36.47
2022-08-24T18:43:32.226Z,21.50
2022-08-24T18:46:04.101Z,18.90
2022-08-24T18:48:33.905Z,18.52
2022-08-24T18:51:09.236Z,19.27
2022-08-24T18:53:39.506Z,19.35
2022-08-24T18:56:12.441Z,19.52
2022-08-24T18:58:44.350Z,18.95
2022-08-24T19:01:14.667Z,19.00
2022-08-24T19:03:45.074Z,19.08
2022-08-24T19:06:17.060Z,18.40
2022-08-24T19:08:48.209Z,18.27
2022-08-24T19:11:24.346Z,19.60
2022-08-24T19:13:54.618Z,18.63
2022-08-24T19:16:30.346Z,21.35
2022-08-24T19:19:00.684Z,19.75
2022-08-24T19:21:35.612Z,19.70
2022-08-24T19:24:08.616Z,20.95
2022-08-24T19:26:40.393Z,19.50
2022-08-24T19:29:11.925Z,19.75
2022-08-24T19:31:46.380Z,19.45
2022-08-24T19:34:17.961Z,19.55
2022-08-24T19:36:51.068Z,18.63
2022-08-24T19:39:22.930Z,19.85
2022-08-24T19:42:01.864Z,20.63
2022-08-24T19:44:52.066Z,20.92
2022-08-24T19:47:23.183Z,19.20
2022-08-24T19:49:54.318Z,20.38
2022-08-24T19:52:26.465Z,20.23
2022-08-24T19:54:56.531Z,19.75
2022-08-24T19:57:38.648Z,20.50
2022-08-24T20:00:25.472Z,20.88
2022-08-24T20:02:57.935Z,20.75
2022-08-24T20:05:31.774Z,22.67
2022-08-24T20:08:06.426Z,22.05
2022-08-24T20:10:38.628Z,19.88
2022-08-24T20:13:10.943Z,22.85
2022-08-24T20:15:40.947Z,22.30
2022-08-24T20:18:12.451Z,23.98
2022-08-24T20:20:42.980Z,23.90
2022-08-24T20:23:15.283Z,24.50
2022-08-24T20:25:45.699Z,23.48
2022-08-24T20:28:37.819Z,24.30
2022-08-24T20:31:10.015Z,24.40
2022-08-24T20:33:39.789Z,25.77
2022-08-24T20:36:23.159Z,23.95
2022-08-24T20:38:57.153Z,25.08
2022-08-24T20:41:30.826Z,25.33
2022-08-24T20:44:02.538Z,26.25
2022-08-24T20:46:33.571Z,25.92
2022-08-24T20:49:04.399Z,25.15
2022-08-24T20:51:33.763Z,24.92
2022-08-24T20:54:09.478Z,25.90
2022-08-24T20:56:41.230Z,26.08
2022-08-24T20:59:14.781Z,27.20
2022-08-24T21:01:44.501Z,27.50
2022-08-24T21:04:14.151Z,27.52
2022-08-24T21:06:45.538Z,26.23
2022-08-24T21:09:17.394Z,26.65
2022-08-24T21:11:49.314Z,25.90
2022-08-24T21:14:20.363Z,27.00
2022-08-24T21:16:50.838Z,26.13
2022-08-24T21:19:32.949Z,26.80
2022-08-24T21:22:04.453Z,27.35
2022-08-24T21:24:36.195Z,27.67
2022-08-24T21:27:06.790Z,27.67
2022-08-24T21:29:36.229Z,27.33
2022-08-24T21:32:23.723Z,28.67
2022-08-24T21:34:53.895Z,27.20
2022-08-24T21:37:25.444Z,27.33
2022-08-24T21:39:56.789Z,28.23
2022-08-24T21:42:27.699Z,28.35
2022-08-24T21:44:57.705Z,27.75
2022-08-24T21:47:27.603Z,29.13
2022-08-24T21:49:58.619Z,29.05
2022-08-24T21:52:28.417Z,28.45
2022-08-24T21:55:00.615Z,29.00
2022-08-24T21:57:31.753Z,30.05
2022-08-24T22:00:01.369Z,28.88
2022-08-24T22:02:33.450Z,28.42
2022-08-24T22:05:03.192Z,29.50
2022-08-24T22:07:32.349Z,30.58
2022-08-24T22:10:03.867Z,30.27
2022-08-24T22:12:33.833Z,29.52
2022-08-24T22:15:04.116Z,29.85
2022-08-24T22:17:33.620Z,28.50
2022-08-24T22:20:03.240Z,27.23
2022-08-24T22:22:32.903Z,26.48
2022-08-24T22:25:05.973Z,28.75
2022-08-24T22:27:37.913Z,28.67
2022-08-24T22:30:08.744Z,30.20
2022-08-24T22:32:38.132Z,31.17
2022-08-24T22:35:09.834Z,32.10
2022-08-24T22:37:39.776Z,32.78
2022-08-24T22:40:13.287Z,34.75
2022-08-24T22:42:43.045Z,33.53
2022-08-24T22:45:13.116Z,33.40
2022-08-24T22:47:43.040Z,32.67
2022-08-24T22:50:14.539Z,34.15
2022-08-24T22:52:45.407Z,32.70
2022-08-24T22:55:16.511Z,34.22
2022-08-24T22:57:46.479Z,30.75
2022-08-24T23:00:21.063Z,33.17
2022-08-24T23:02:50.824Z,31.52
2022-08-24T23:05:20.644Z,32.83
2022-08-24T23:07:49.632Z,32.33
2022-08-24T23:10:21.811Z,33.03
2022-08-24T23:12:51.152Z,32.25
2022-08-24T23:15:20.439Z,30.77
2022-08-24T23:17:49.981Z,32.22
2022-08-24T23:20:17.818Z,30.00
2022-08-24T23:22:48.780Z,31.40
2022-08-24T23:25:21.482Z,31.58
2022-08-24T23:27:53.798Z,30.35
2022-08-24T23:30:23.570Z,29.98
2022-08-24T23:32:53.530Z,31.55
2022-08-24T23:35:24.179Z,32.55
2022-08-24T23:37:56.182Z,34.28
2022-08-24T23:40:26.799Z,31.75
2022-08-24T23:42:56.346Z,29.85
2022-08-24T23:45:28.400Z,31.20
2022-08-24T23:48:00.170Z,31.00
2022-08-24T23:50:29.365Z,31.20
2022-08-24T23:52:58.862Z,31.88
2022-08-24T23:55:30.003Z,32.50
2022-08-24T23:57:59.430Z,33.70
